Etusivu
METAR-TAF:

METAR-TAF

Lentoasemat :

Minocqua / Woodruff, Wisconsin, Yhdysvallat

Leveyspiiri: 45-56N, Pituuspiiri: 089-44W, korkeus merenpinnasta: 496 m

Tämänhetkinen sää

Tämä raportti tehtiin 23 minuuttia sitten, kello 06.35 UTC
Tuuli 3 kn lounaasta
Lämpötila 1°C
Kosteus 93%
Ilmanpaine 1014 hPa
Näkyvyys: 3.2 km
Pilvistä 200 ft:n korkeudessa
utua

METAR: KARV 200635Z AUTO 23003KT 2SM BR OVC002 01/00 A2995 RMK AO2 T00110000

Aika: 00:58 (06:58 UTC)


TAF: puuttuu

Säähavainnot ja -ennusteet yli 4000 lentoasemalta (METAR- ja TAF-raportit).

Käytössä olevat sääasemat on merkitty karttaan keltaisilla ja punaisilla pisteillä.

Aseta hiiri pisteen päälle nähdäksesi sääaseman nimen.

Klikkaa sitten nähdäksesi säähavainnot ja -ennusteet.

Kartan vaihtaminen: klikkaa mustalla rastilla varustettuja vihreitä pisteitä, niin voit zoomata sisään; viivalla varustettua vihreää pistettä, niin voit zoomata ulos tai vihreitä nuolia, niin pääset viereisille kartoille.


METAR-TAF: